Weather observations for the past three days for
Lebanon Municipal Airport
| Date | Time (cdt) | Wind (mph) | Vis. (mi.) | Weather | Sky Cond. | Temperature (ºF) | Relative Humidity | Wind Chill (°F) | Heat Index (°F) | Pressure | Precipitation (in) | ||||||
|---|---|---|---|---|---|---|---|---|---|---|---|---|---|---|---|---|---|
| Air | Dwpt | 6 hour | altimeter (in) | sea level (mb) | 1 hr | 3 hr | 6 hr | ||||||||||
| Max. | Min. | ||||||||||||||||
| 04 | 14:30 | SW 16 | 10.00 | Partly Cloudy | SCT070 | 80.6 | 51.8 | 37% | 80 | 29.86 | 0.0 | ||||||
| 04 | 14:10 | SW 15 G 22 | 10.00 | Fair | CLR | 80.6 | 51.8 | 37% | 80 | 29.86 | 0.0 | ||||||
| 04 | 13:50 | SW 14 G 22 | 10.00 | A Few Clouds | FEW065 | 80.6 | 53.6 | 39% | 80 | 29.87 | 0.0 | ||||||
| 04 | 13:30 | SW 15 G 22 | 10.00 | Fair | CLR | 78.8 | 51.8 | 39% | 79 | 29.87 | 0.0 | ||||||
| 04 | 13:10 | SW 15 G 22 | 10.00 | Fair | CLR | 78.8 | 51.8 | 39% | 79 | 29.88 | 0.0 | ||||||
| 04 | 12:50 | SW 17 | 10.00 | Fair | CLR | 78.8 | 53.6 | 42% | 79 | 29.88 | 0.0 | ||||||
| 04 | 12:30 | S 14 G 21 | 10.00 | Fair | CLR | 77 | 53.6 | 44% | 78 | 29.89 | 0.0 | ||||||
| 04 | 12:10 | S 14 | 10.00 | Fair | CLR | 77 | 53.6 | 44% | 78 | 29.9 | 0.0 | ||||||
| 04 | 11:50 | SW 12 G 17 | 10.00 | Fair | CLR | 75.2 | 53.6 | 47% | 78 | 29.91 | 0.0 | ||||||
| 04 | 11:30 | SW 17 | 10.00 | Fair | CLR | 75.2 | 51.8 | 44% | 78 | 29.92 | 0.0 | ||||||
| 04 | 11:10 | SW 15 G 22 | 10.00 | Fair | CLR | 73.4 | 53.6 | 50% | 29.92 | 0.0 | |||||||
| 04 | 10:50 | SW 17 G 23 | 10.00 | Fair | CLR | 73.4 | 51.8 | 47% | 29.93 | 0.0 | |||||||
| 04 | 10:30 | S 15 G 22 | 10.00 | Fair | CLR | 71.6 | 51.8 | 50% | 29.93 | 0.0 | |||||||
| 04 | 10:10 | SW 16 G 22 | 10.00 | Fair | CLR | 69.8 | 51.8 | 53% | 29.93 | 0.0 | |||||||
| 04 | 09:50 | SW 14 G 24 | 10.00 | Fair | CLR | 68 | 50 | 53% | 29.93 | 0.0 | |||||||
| 04 | 09:30 | S 18 | 10.00 | Fair | CLR | 68 | 50 | 53% | 29.94 | 0.0 | |||||||
| 04 | 09:10 | SW 18 G 24 | 10.00 | Fair | CLR | 66.2 | 48.2 | 52% | 29.94 | 0.0 | |||||||
| 04 | 08:50 | SW 15 G 22 | 10.00 | Fair | CLR | 64.4 | 48.2 | 56% | 29.95 | 0.0 | |||||||
| 04 | 08:30 | SW 14 | 10.00 | Fair | CLR | 62.6 | 46.4 | 56% | 29.96 | 0.0 | |||||||
| 04 | 08:10 | SW 10 | 10.00 | Fair | CLR | 60.8 | 46.4 | 59% | 29.96 | 0.0 | |||||||
| 04 | 07:50 | S 13 | 10.00 | Fair | CLR | 60.8 | 44.6 | 55% | 29.96 | 0.0 | |||||||
| 04 | 07:30 | S 9 | 10.00 | Fair | CLR | 59 | 44.6 | 59% | 29.96 | 0.0 | |||||||
| 04 | 07:10 | S 8 G 15 | 10.00 | Fair | CLR | 57.2 | 44.6 | 63% | 29.96 | 0.0 | |||||||
| 04 | 06:50 | S 10 | 10.00 | Fair | CLR | 57.2 | 42.8 | 59% | 29.95 | 0.0 | |||||||
| 04 | 06:30 | S 9 | 10.00 | Fair | CLR | 55.4 | 42.8 | 63% | 29.95 | 0.0 | |||||||
| 04 | 06:10 | S 10 | 10.00 | Fair | CLR | 55.4 | 42.8 | 63% | 29.94 | 0.0 | |||||||
| 04 | 05:50 | S 8 | 10.00 | Fair | CLR | 55.4 | 42.8 | 63% | 29.94 | 0.0 | |||||||
| 04 | 05:30 | S 10 | 10.00 | Fair | CLR | 55.4 | 42.8 | 63% | 29.93 | 0.0 | |||||||
| 04 | 05:10 | S 10 | 10.00 | Fair | CLR | 55.4 | 41 | 59% | 29.93 | 0.0 | |||||||
| 04 | 04:50 | S 10 | 10.00 | Fair | CLR | 55.4 | 41 | 59% | 29.93 | 0.0 | |||||||
| 04 | 04:30 | S 10 | 10.00 | Fair | CLR | 55.4 | 41 | 59% | 29.93 | 0.0 | |||||||
| 04 | 04:10 | S 12 | 10.00 | A Few Clouds | FEW044 | 55.4 | 41 | 59% | 29.93 | 0.0 | |||||||
| 04 | 03:50 | S 13 | 10.00 | Fair | CLR | 55.4 | 41 | 59% | 29.94 | 0.0 | |||||||
| 04 | 03:30 | S 10 | 10.00 | A Few Clouds | FEW043 | 55.4 | 41 | 59% | 29.94 | 0.0 | |||||||
| 04 | 03:10 | S 10 G 16 | 10.00 | Partly Cloudy | SCT042 SCT048 | 55.4 | 41 | 59% | 29.94 | 0.0 | |||||||
| 04 | 02:50 | S 8 G 15 | 10.00 | Partly Cloudy | FEW034 FEW042 SCT049 | 55.4 | 41 | 59% | 29.95 | 0.0 | |||||||
| 04 | 02:30 | S 9 | 10.00 | A Few Clouds | FEW035 FEW044 | 55.4 | 41 | 59% | 29.95 | 0.0 | |||||||
| 04 | 02:10 | S 9 | 10.00 | A Few Clouds | FEW037 FEW044 | 55.4 | 41 | 59% | 29.95 | 0.0 | |||||||
| 04 | 01:50 | S 7 | 10.00 | Partly Cloudy | SCT035 SCT043 | 53.6 | 41 | 63% | 29.96 | 0.0 | |||||||
| 04 | 01:35 | S 8 | 10.00 | Partly Cloudy | FEW032 SCT038 SCT044 | 53.6 | 41 | 63% | 29.96 | 0.0 | |||||||
| 04 | 01:10 | S 6 | 10.00 | A Few Clouds | FEW041 | 53.6 | 41 | 63% | 29.97 | 0.0 | |||||||
| 04 | 00:50 | SW 5 | 10.00 | Fair | CLR | 53.6 | 41 | 63% | 29.98 | 0.0 | |||||||
| 04 | 00:35 | SW 6 | 10.00 | A Few Clouds | FEW037 | 53.6 | 41 | 63% | 29.98 | 0.0 | |||||||
| 04 | 00:10 | S 6 G 12 | 10.00 | A Few Clouds | FEW035 | 55.4 | 41 | 59% | 29.98 | 0.0 | |||||||
| 03 | 23:50 | SW 7 | 10.00 | A Few Clouds | FEW036 FEW045 | 55.4 | 41 | 59% | 29.97 | 0.0 | |||||||
| 03 | 23:25 | S 13 | 10.00 | Fair | CLR | 57.2 | 41 | 55% | 29.96 | 0.0 | |||||||
| 03 | 23:10 | S 12 G 18 | 10.00 | Fair | CLR | 57.2 | 41 | 55% | 29.97 | 0.0 | |||||||
| 03 | 22:50 | S 12 | 10.00 | Fair | CLR | 57.2 | 41 | 55% | 29.97 | 0.0 | |||||||
| 03 | 22:35 | S 10 | 10.00 | Fair | CLR | 55.4 | 41 | 59% | 29.98 | 0.0 | |||||||
| 03 | 22:10 | Calm | 10.00 | Fair | CLR | 55.4 | 41 | 59% | 29.99 | 0.0 | |||||||
| 03 | 21:50 | S 5 | 10.00 | Fair | CLR | 55.4 | 39.2 | 55% | 29.99 | 0.0 | |||||||
| 03 | 21:35 | S 5 | 10.00 | Fair | CLR | 55.4 | 39.2 | 55% | 29.99 | 0.0 | |||||||
| 03 | 21:10 | SW 5 | 10.00 | Fair | CLR | 57.2 | 39.2 | 51% | 29.99 | 0.0 | |||||||
| 03 | 20:45 | SW 6 | 10.00 | Fair | CLR | 57.2 | 39.2 | 51% | 29.97 | 0.0 | |||||||
| 03 | 20:35 | S 7 | 10.00 | Fair | CLR | 59 | 39.2 | 48% | 29.96 | 0.0 | |||||||
| 03 | 20:10 | S 8 | 10.00 | Fair | CLR | 59 | 39.2 | 48% | 29.96 | 0.0 | |||||||
| 03 | 19:50 | S 7 | 10.00 | Fair | CLR | 59 | 39.2 | 48% | 29.97 | 0.0 | |||||||
| 03 | 19:35 | S 7 | 10.00 | Fair | CLR | 60.8 | 39.2 | 45% | 29.97 | 0.0 | |||||||
| 03 | 19:10 | S 6 | 10.00 | Fair | CLR | 62.6 | 39.2 | 42% | 29.97 | 0.0 | |||||||
| 03 | 18:55 | S 8 | 10.00 | Fair | CLR | 64.4 | 37.4 | 37% | 29.97 | 0.0 | |||||||
| 03 | 18:25 | SW 8 | 10.00 | Fair | CLR | 68 | 37.4 | 33% | 29.99 | 0.0 | |||||||
| 03 | 18:10 | W 6 G 14 | 10.00 | Fair | CLR | 68 | 35.6 | 30% | 29.99 | 0.0 | |||||||
| 03 | 17:55 | SW 12 | 10.00 | Fair | CLR | 68 | 35.6 | 30% | 29.99 | 0.0 | |||||||
| 03 | 17:30 | SW 16 G 22 | 10.00 | Fair | CLR | 68 | 35.6 | 30% | 30 | 0.0 | |||||||
| 03 | 17:10 | SW 12 | 10.00 | Fair | CLR | 68 | 37.4 | 33% | 30.01 | 0.0 | |||||||
| 03 | 16:55 | SW 13 | 10.00 | Fair | CLR | 68 | 37.4 | 33% | 30.01 | 0.0 | |||||||
| 03 | 16:30 | SW 10 | 10.00 | Fair | CLR | 68 | 37.4 | 33% | 30.02 | 0.0 | |||||||
| 03 | 16:10 | Vrbl 7 | 10.00 | Fair | CLR | 68 | 35.6 | 30% | 30.03 | 0.0 | |||||||
| 03 | 15:55 | Vrbl 6 G 12 | 10.00 | Fair | CLR | 66.2 | 35.6 | 32% | 30.04 | 0.0 | |||||||
| 03 | 15:30 | W 7 G 15 | 10.00 | Fair | CLR | 66.2 | 35.6 | 32% | 30.05 | 0.0 | |||||||
| 03 | 15:10 | Vrbl 6 | 10.00 | Fair | CLR | 66.2 | 35.6 | 32% | 30.06 | 0.0 | |||||||
| 03 | 14:45 | SW 7 G 16 | 10.00 | Fair | CLR | 66.2 | 35.6 | 32% | 30.08 | 0.0 | |||||||
| 03 | 14:30 | SW 7 | 10.00 | Fair | CLR | 66.2 | 35.6 | 32% | 30.09 | 0.0 | |||||||
| 03 | 14:10 | SW 14 | 10.00 | Fair | CLR | 64.4 | 35.6 | 34% | 30.09 | 0.0 | |||||||
| 03 | 13:55 | Vrbl 7 G 13 | 10.00 | Fair | CLR | 64.4 | 33.8 | 32% | 30.1 | 0.0 | |||||||
| 03 | 13:30 | Vrbl 5 | 10.00 | Fair | CLR | 62.6 | 33.8 | 34% | 30.11 | 0.0 | |||||||
| 03 | 13:10 | Vrbl 7 G 14 | 10.00 | Fair | CLR | 62.6 | 33.8 | 34% | 30.12 | 0.0 | |||||||
| 03 | 12:55 | Vrbl 6 G 12 | 10.00 | Fair | CLR | 62.6 | 33.8 | 34% | 30.13 | 0.0 | |||||||
| 03 | 12:30 | Vrbl 3 | 10.00 | Fair | CLR | 60.8 | 33.8 | 36% | 30.13 | 0.0 | |||||||
| 03 | 12:05 | Vrbl 6 | 10.00 | Fair | CLR | 60.8 | 35.6 | 39% | 30.15 | 0.0 | |||||||
| 03 | 11:55 | Vrbl 7 | 10.00 | Fair | CLR | 60.8 | 35.6 | 39% | 30.15 | 0.0 | |||||||
| 03 | 11:30 | SW 7 G 18 | 10.00 | Fair | CLR | 59 | 35.6 | 42% | 30.16 | 0.0 | |||||||
| 03 | 11:10 | W 3 | 10.00 | Fair | CLR | 59 | 33.8 | 39% | 30.16 | 0.0 | |||||||
| 03 | 10:55 | E 6 | 10.00 | Fair | CLR | 57.2 | 32 | 39% | 30.16 | 0.0 | |||||||
| 03 | 10:30 | Calm | 10.00 | Fair | CLR | 57.2 | 32 | 39% | 30.17 | 0.0 | |||||||
| 03 | 10:10 | Calm | 10.00 | Fair | CLR | 57.2 | 33.8 | 41% | 30.17 | 0.0 | |||||||
| 03 | 09:55 | Calm | 10.00 | Fair | CLR | 55.4 | 37.4 | 51% | 30.17 | 0.0 | |||||||
| 03 | 09:25 | Calm | 10.00 | Fair | CLR | 53.6 | 41 | 63% | 30.17 | 0.0 | |||||||
| 03 | 09:10 | Calm | 10.00 | Fair | CLR | 53.6 | 42.8 | 67% | 30.17 | 0.0 | |||||||
| 03 | 08:55 | Calm | 10.00 | Fair | CLR | 51.8 | 44.6 | 77% | 30.17 | 0.0 | |||||||
| 03 | 08:30 | Calm | 10.00 | Fair | CLR | 50 | 44.6 | 82% | 30.17 | 0.0 | |||||||
| 03 | 08:10 | Calm | 10.00 | Fair | CLR | 48.2 | 44.6 | 87% | 30.17 | 0.0 | |||||||
| 03 | 07:55 | Calm | 10.00 | Fair | CLR | 48.2 | 46.4 | 94% | 30.17 | 0.0 | |||||||
| 03 | 07:30 | Calm | 10.00 | Fair | CLR | 44.6 | 44.6 | 100% | 30.17 | 0.0 | |||||||
| 03 | 07:10 | Calm | 9.00 | Fair | CLR | 42.8 | 42.8 | 100% | 30.16 | 0.0 | |||||||
| 03 | 06:55 | Calm | 9.00 | Fair | CLR | 41 | 41 | 100% | 30.16 | 0.0 | |||||||
| 03 | 06:30 | Calm | 5.00 | Fog/Mist | CLR | 37.4 | 37.4 | 100% | 30.15 | 0.0 | |||||||
| 03 | 06:10 | Calm | 5.00 | Fog/Mist | CLR | 33.8 | 33.8 | 100% | 30.13 | 0.0 | |||||||
| 03 | 05:45 | Calm | 6.00 | Fog/Mist | CLR | 35.6 | 35.6 | 100% | 30.13 | 0.0 | |||||||
| 03 | 05:30 | Calm | 3.00 | Fog/Mist | FEW003 FEW050 | 35.6 | 35.6 | 100% | 30.13 | 0.0 | |||||||
| 03 | 05:10 | Calm | 7.00 | Partly Cloudy | FEW003 SCT050 | 37.4 | 37.4 | 100% | 30.13 | 0.0 | |||||||
| 03 | 04:55 | Calm | 6.00 | Fog/Mist | CLR | 37.4 | 37.4 | 100% | 30.12 | 0.0 | |||||||
| 03 | 04:30 | Calm | 8.00 | A Few Clouds | FEW055 | 39.2 | 39.2 | 100% | 30.12 | 0.0 | |||||||
| 03 | 04:10 | Calm | 1.25 | Fog/Mist | SCT050 BKN055 | 39.2 | 39.2 | 100% | 30.12 | 0.0 | |||||||
| 03 | 03:55 | Calm | 6.00 | Fog/Mist | SCT050 BKN060 | 39.2 | 39.2 | 100% | 30.12 | 0.0 | |||||||
| 03 | 03:30 | Calm | 5.00 | Fog/Mist | SCT049 SCT055 | 39.2 | 39.2 | 100% | 30.12 | 0.0 | |||||||
| 03 | 03:05 | Calm | 10.00 | Mostly Cloudy | BKN048 | 41 | 41 | 100% | 30.12 | 0.0 | |||||||
| 03 | 02:55 | Calm | 10.00 | Mostly Cloudy | SCT047 BKN055 | 41 | 41 | 100% | 30.12 | 0.0 | |||||||
| 03 | 02:30 | Calm | 10.00 | Partly Cloudy | SCT050 | 41 | 41 | 100% | 30.11 | 0.0 | |||||||
| 03 | 02:10 | Calm | 10.00 | Partly Cloudy | SCT050 | 41 | 41 | 100% | 30.11 | 0.0 | |||||||
| 03 | 01:50 | Calm | 10.00 | A Few Clouds | FEW049 | 41 | 41 | 100% | 30.11 | 0.0 | |||||||
| 03 | 01:35 | Calm | 10.00 | A Few Clouds | FEW048 | 41 | 41 | 100% | 30.11 | 0.0 | |||||||
| 03 | 01:10 | Calm | 10.00 | A Few Clouds | FEW045 FEW055 | 41 | 41 | 100% | 30.11 | 0.0 | |||||||
| 03 | 00:50 | Calm | 10.00 | Fair | CLR | 41 | 41 | 100% | 30.11 | 0.0 | |||||||
| 03 | 00:35 | Calm | 10.00 | Fair | CLR | 42.8 | 42.8 | 100% | 30.11 | 0.0 | |||||||
| 03 | 00:10 | Calm | 10.00 | Fair | CLR | 42.8 | 42.8 | 100% | 30.1 | 0.0 | |||||||
| 02 | 23:50 | Calm | 10.00 | A Few Clouds | FEW049 FEW065 | 42.8 | 42.8 | 100% | 30.1 | 0.0 | |||||||
| 02 | 23:35 | Calm | 10.00 | Partly Cloudy | FEW041 SCT050 SCT065 | 42.8 | 42.8 | 100% | 30.1 | 0.0 | |||||||
| 02 | 23:10 | S 3 | 10.00 | Mostly Cloudy | SCT038 BKN044 BKN050 | 44.6 | 42.8 | 93% | 30.09 | 0.0 | |||||||
| 02 | 22:50 | Calm | 10.00 | Mostly Cloudy | BKN038 BKN044 | 44.6 | 44.6 | 100% | 30.09 | 0.0 | |||||||
| 02 | 22:35 | Calm | 10.00 | Overcast | BKN036 OVC044 | 44.6 | 44.6 | 100% | 30.09 | 0.0 | |||||||
| 02 | 22:10 | Calm | 10.00 | Mostly Cloudy | FEW034 SCT042 BKN048 | 44.6 | 42.8 | 93% | 30.09 | 0.0 | |||||||
| 02 | 21:50 | Calm | 10.00 | Overcast | FEW032 BKN048 OVC055 | 44.6 | 42.8 | 93% | 30.09 | 0.0 | |||||||
| 02 | 21:35 | Calm | 10.00 | Mostly Cloudy | FEW032 FEW041 BKN049 | 46.4 | 44.6 | 93% | 30.09 | 0.0 | |||||||
| 02 | 21:10 | Calm | 10.00 | Partly Cloudy | FEW049 SCT055 SCT070 | 46.4 | 44.6 | 93% | 30.08 | 0.0 | |||||||
| 02 | 20:50 | Calm | 10.00 | Mostly Cloudy | BKN047 BKN055 BKN070 | 48.2 | 42.8 | 82% | 30.08 | 0.0 | |||||||
| 02 | 20:35 | Calm | 10.00 | Mostly Cloudy | BKN048 BKN055 | 50 | 42.8 | 76% | 30.07 | 0.0 | |||||||
| 02 | 20:10 | Calm | 10.00 | A Few Clouds | FEW046 | 50 | 42.8 | 76% | 30.06 | 0.0 | |||||||
| 02 | 19:50 | Vrbl 6 | 10.00 | Fair | CLR | 50 | 42.8 | 76% | 48 | 30.06 | 0.0 | ||||||
| 02 | 19:35 | NE 6 | 10.00 | A Few Clouds | FEW120 | 51.8 | 44.6 | 77% | 30.05 | 0.0 | |||||||
| 02 | 19:10 | N 8 G 15 | 10.00 | Overcast | SCT065 BKN080 OVC120 | 51.8 | 44.6 | 77% | 30.04 | 0.0 | |||||||
| 02 | 18:50 | N 14 | 10.00 | Overcast | BKN065 OVC075 | 53.6 | 44.6 | 72% | 30.03 | 0.0 | |||||||
| 02 | 18:30 | N 12 G 18 | 10.00 | Overcast | FEW050 BKN075 OVC100 | 53.6 | 44.6 | 72% | 30.03 | 0.0 | |||||||
| 02 | 18:10 | N 9 G 16 | 10.00 | Overcast | SCT050 BKN075 OVC090 | 55.4 | 44.6 | 67% | 30.02 | 0.0 | |||||||
| 02 | 17:50 | N 10 G 18 | 10.00 | Overcast | SCT031 BKN065 OVC120 | 55.4 | 44.6 | 67% | 30.01 | 0.0 | |||||||
| 02 | 17:30 | NW 15 G 30 | 9.00 | Mostly Cloudy | FEW032 SCT049 BKN065 | 59 | 42.8 | 55% | 30 | 0.0 | |||||||
| 02 | 17:10 | W 8 G 18 | 10.00 | Partly Cloudy | FEW070 SCT100 | 62.6 | 35.6 | 37% | 29.97 | 0.0 | |||||||
| 02 | 16:50 | W 6 G 16 | 10.00 | A Few Clouds | FEW110 | 64.4 | 35.6 | 34% | 29.96 | 0.0 | |||||||
| 02 | 16:30 | NW 9 | 10.00 | Partly Cloudy | SCT100 | 62.6 | 35.6 | 37% | 29.96 | 0.0 | |||||||
| 02 | 16:10 | Vrbl 7 G 15 | 10.00 | Mostly Cloudy | BKN110 | 64.4 | 35.6 | 34% | 29.96 | 0.0 | |||||||
| 02 | 15:50 | NW 6 | 10.00 | Partly Cloudy | SCT075 | 62.6 | 35.6 | 37% | 29.96 | 0.0 | |||||||
| 02 | 15:30 | N 12 | 10.00 | A Few Clouds | FEW060 FEW085 FEW100 | 62.6 | 35.6 | 37% | 29.97 | 0.0 | |||||||
| 02 | 15:10 | N 13 | 10.00 | Partly Cloudy | FEW075 SCT100 | 64.4 | 35.6 | 34% | 29.97 | 0.0 | |||||||
| 02 | 14:50 | N 9 | 10.00 | Partly Cloudy | FEW070 SCT085 SCT100 | 66.2 | 35.6 | 32% | 29.98 | 0.0 | |||||||
| 02 | 14:10 | N 10 | 10.00 | Partly Cloudy | FEW070 FEW080 SCT100 | 64.4 | 35.6 | 34% | 29.99 | 0.0 | |||||||
| 02 | 13:50 | NE 6 | 10.00 | Partly Cloudy | SCT065 SCT075 SCT085 | 64.4 | 35.6 | 34% | 29.99 | 0.0 | |||||||
| 02 | 13:30 | Vrbl 7 | 10.00 | Mostly Cloudy | BKN070 BKN090 | 64.4 | 37.4 | 37% | 30 | 0.0 | |||||||
| 02 | 13:10 | NW 6 G 13 | 10.00 | Partly Cloudy | FEW070 FEW080 SCT095 | 64.4 | 35.6 | 34% | 30 | 0.0 | |||||||
| 02 | 12:50 | W 7 G 15 | 10.00 | A Few Clouds | FEW070 | 64.4 | 37.4 | 37% | 30.01 | 0.0 | |||||||
| 02 | 12:30 | NE 8 | 10.00 | A Few Clouds | FEW065 | 62.6 | 35.6 | 37% | 30.01 | 0.0 | |||||||
| 02 | 12:10 | Vrbl 5 | 10.00 | Partly Cloudy | SCT060 | 62.6 | 33.8 | 34% | 30.02 | 0.0 | |||||||
| 02 | 11:50 | Vrbl 6 G 14 | 10.00 | Fair | CLR | 62.6 | 35.6 | 37% | 30.02 | 0.0 | |||||||
| 02 | 11:30 | N 8 | 10.00 | Fair | CLR | 62.6 | 35.6 | 37% | 30.03 | 0.0 | |||||||
| 02 | 11:10 | NW 10 | 10.00 | Fair | CLR | 62.6 | 35.6 | 37% | 30.03 | 0.0 | |||||||
| 02 | 10:50 | NE 6 | 10.00 | Fair | CLR | 60.8 | 35.6 | 39% | 30.03 | 0.0 | |||||||
| 02 | 10:30 | Calm | 10.00 | Fair | CLR | 59 | 37.4 | 45% | 30.03 | 0.0 | |||||||
| 02 | 10:10 | Vrbl 6 G 15 | 10.00 | Fair | CLR | 59 | 35.6 | 42% | 30.03 | 0.0 | |||||||
| 02 | 09:50 | NE 5 | 10.00 | Fair | CLR | 59 | 39.2 | 48% | 30.03 | 0.0 | |||||||
| 02 | 09:30 | Vrbl 5 | 10.00 | Fair | CLR | 57.2 | 37.4 | 48% | 30.03 | 0.0 | |||||||
| 02 | 09:10 | Calm | 10.00 | Fair | CLR | 55.4 | 37.4 | 51% | 30.03 | 0.0 | |||||||
| 02 | 08:50 | Vrbl 6 | 10.00 | Fair | CLR | 55.4 | 39.2 | 55% | 30.03 | 0.0 | |||||||
| 02 | 08:30 | Calm | 10.00 | Fair | CLR | 53.6 | 39.2 | 58% | 30.03 | 0.0 | |||||||
| 02 | 08:10 | NE 3 | 10.00 | Fair | CLR | 51.8 | 41 | 67% | 30.03 | 0.0 | |||||||
| 02 | 07:50 | Calm | 10.00 | Fair | CLR | 50 | 41 | 71% | 30.03 | 0.0 | |||||||
| 02 | 07:30 | Calm | 10.00 | Fair | CLR | 48.2 | 42.8 | 82% | 30.03 | 0.0 | |||||||
| 02 | 07:10 | Calm | 10.00 | Fair | CLR | 46.4 | 42.8 | 87% | 30.02 | 0.0 | |||||||
| 02 | 06:50 | Calm | 10.00 | Fair | CLR | 42.8 | 42.8 | 100% | 30.02 | 0.0 | |||||||
| 02 | 06:30 | Calm | 10.00 | Fair | CLR | 41 | 41 | 100% | 30.01 | 0.0 | |||||||
| 02 | 06:10 | Calm | 10.00 | Fair | CLR | 42.8 | 41 | 93% | 30.01 | 0.0 | |||||||
| 02 | 05:50 | Calm | 10.00 | Fair | CLR | 42.8 | 39.2 | 87% | 30 | 0.0 | |||||||
| 02 | 05:30 | Calm | 10.00 | Fair | CLR | 42.8 | 39.2 | 87% | 30 | 0.0 | |||||||
| 02 | 05:10 | Calm | 10.00 | Fair | CLR | 42.8 | 41 | 93% | 29.99 | 0.0 | |||||||
| 02 | 04:50 | Calm | 10.00 | Fair | CLR | 44.6 | 41 | 87% | 30 | 0.0 | |||||||
| 02 | 04:30 | Calm | 10.00 | Fair | CLR | 46.4 | 41 | 82% | 29.99 | 0.0 | |||||||
| 02 | 04:10 | Calm | 10.00 | Fair | CLR | 46.4 | 41 | 82% | 29.99 | 0.0 | |||||||
| 02 | 03:50 | Calm | 10.00 | Fair | CLR | 44.6 | 41 | 87% | 29.99 | 0.0 | |||||||
| 02 | 03:30 | Calm | 10.00 | Fair | CLR | 44.6 | 41 | 87% | 29.99 | 0.0 | |||||||
| 02 | 03:10 | Calm | 10.00 | Fair | CLR | 46.4 | 41 | 82% | 29.99 | 0.0 | |||||||
| 02 | 02:50 | Calm | 10.00 | Fair | CLR | 46.4 | 39.2 | 76% | 30.01 | 0.0 | |||||||
| 02 | 02:30 | Calm | 10.00 | Fair | CLR | 46.4 | 39.2 | 76% | 30.01 | 0.0 | |||||||
| 02 | 02:10 | Calm | 10.00 | Fair | CLR | 46.4 | 39.2 | 76% | 30.01 | 0.0 | |||||||
| 02 | 01:50 | Calm | 10.00 | Fair | CLR | 46.4 | 39.2 | 76% | 30.01 | 0.0 | |||||||
| 02 | 01:35 | Calm | 10.00 | A Few Clouds | FEW055 | 46.4 | 39.2 | 76% | 30.01 | 0.0 | |||||||
| 02 | 01:10 | Calm | 10.00 | Partly Cloudy | SCT055 | 46.4 | 37.4 | 71% | 30.02 | 0.0 | |||||||
| 02 | 00:50 | Calm | 10.00 | A Few Clouds | FEW055 | 44.6 | 37.4 | 76% | 30.02 | 0.0 | |||||||
| 02 | 00:35 | Calm | 10.00 | A Few Clouds | FEW044 FEW050 | 50 | 35.6 | 58% | 30.01 | 0.0 | |||||||
| 02 | 00:10 | N 6 | 10.00 | Partly Cloudy | FEW044 SCT050 | 51.8 | 35.6 | 54% | 29.99 | 0.0 | |||||||
| 01 | 23:50 | N 6 | 10.00 | A Few Clouds | FEW047 | 51.8 | 35.6 | 54% | 29.99 | 0.0 | |||||||
| 01 | 23:35 | N 9 | 10.00 | A Few Clouds | FEW046 FEW050 | 51.8 | 37.4 | 58% | 30 | 0.0 | |||||||
| 01 | 23:10 | N 5 | 10.00 | A Few Clouds | FEW046 FEW055 | 53.6 | 37.4 | 54% | 30.01 | 0.0 | |||||||
| 01 | 22:50 | N 6 | 10.00 | A Few Clouds | FEW049 FEW055 | 53.6 | 37.4 | 54% | 30.01 | 0.0 | |||||||
| 01 | 22:35 | N 6 | 10.00 | A Few Clouds | FEW049 FEW055 | 53.6 | 37.4 | 54% | 30.02 | 0.0 | |||||||
| 01 | 22:10 | N 8 | 10.00 | A Few Clouds | FEW048 FEW055 | 53.6 | 37.4 | 54% | 30.03 | 0.0 | |||||||
| 01 | 21:50 | N 10 | 10.00 | Partly Cloudy | FEW048 SCT055 | 55.4 | 35.6 | 47% | 30.02 | 0.0 | |||||||
| 01 | 21:35 | N 7 | 10.00 | A Few Clouds | FEW050 FEW055 | 53.6 | 37.4 | 54% | 30.01 | 0.0 | |||||||
| 01 | 21:10 | N 7 | 10.00 | Partly Cloudy | SCT050 SCT055 | 55.4 | 35.6 | 47% | 30.01 | 0.0 | |||||||
| 01 | 20:50 | N 6 | 10.00 | Partly Cloudy | SCT050 SCT055 | 55.4 | 35.6 | 47% | 30.01 | 0.0 | |||||||
| 01 | 20:25 | N 6 | 10.00 | A Few Clouds | FEW050 | 55.4 | 35.6 | 47% | 30 | 0.0 | |||||||
| 01 | 20:10 | N 6 | 10.00 | Fair | CLR | 57.2 | 33.8 | 41% | 30 | 0.0 | |||||||
| 01 | 19:50 | NW 6 | 10.00 | Fair | CLR | 57.2 | 33.8 | 41% | 29.98 | 0.0 | |||||||
| 01 | 19:35 | NW 7 | 10.00 | Fair | CLR | 57.2 | 33.8 | 41% | 29.97 | 0.0 | |||||||
| 01 | 19:10 | N 8 | 10.00 | Fair | CLR | 59 | 32 | 36% | 29.95 | 0.0 | |||||||
| 01 | 18:55 | N 10 | 10.00 | Fair | CLR | 60.8 | 30.2 | 31% | 29.94 | 0.0 | |||||||
| 01 | 18:30 | N 12 | 10.00 | Fair | CLR | 60.8 | 30.2 | 31% | 29.93 | 0.0 | |||||||
| 01 | 18:10 | N 10 G 16 | 10.00 | Fair | CLR | 62.6 | 28.4 | 27% | 29.94 | 0.0 | |||||||
| 01 | 17:45 | N 10 | 10.00 | Fair | CLR | 62.6 | 33.8 | 34% | 29.93 | 0.0 | |||||||
| 01 | 17:30 | NW 9 G 17 | 10.00 | Fair | CLR | 62.6 | 30.2 | 30% | 29.92 | 0.0 | |||||||
| 01 | 17:10 | N 13 | 10.00 | Fair | CLR | 64.4 | 30.2 | 28% | 29.92 | 0.0 | |||||||
| 01 | 16:55 | NW 13 | 10.00 | Fair | CLR | 64.4 | 32 | 30% | 29.93 | 0.0 | |||||||
| 01 | 16:30 | N 13 G 20 | 10.00 | Fair | CLR | 64.4 | 35.6 | 34% | 29.93 | 0.0 | |||||||
| 01 | 16:10 | N 10 G 17 | 10.00 | A Few Clouds | FEW055 | 64.4 | 41 | 43% | 29.93 | 0.0 | |||||||
| 01 | 15:55 | NW 12 G 17 | 10.00 | A Few Clouds | FEW055 | 64.4 | 41 | 43% | 29.94 | 0.0 | |||||||
| 01 | 15:30 | NW 14 G 20 | 10.00 | A Few Clouds | FEW060 | 66.2 | 41 | 40% | 29.94 | 0.0 | |||||||
| 01 | 15:05 | NW 10 G 18 | 10.00 | Fair | CLR | 66.2 | 41 | 40% | 29.95 | 0.0 | |||||||
| 01 | 14:55 | N 10 G 17 | 10.00 | Fair | CLR | 66.2 | 41 | 40% | 29.95 | 0.0 | |||||||
| Date | Time (cdt) | Wind (mph) | Vis. (mi.) | Weather | Sky Cond. | Air | Dwpt | Max. | Min. | Relative Humidity | Wind Chill (°F) | Heat Index (°F) | altimeter (in) | sea level (mb) | 1 hr | 3 hr | 6 hr |
| 6 hour | |||||||||||||||||
| Temperature (ºF) | Pressure | Precipitation (in) | |||||||||||||||